createdAt,value
2023-07-18T00:01:55.695Z,16.49
2023-07-18T00:04:22.116Z,16.45
2023-07-18T00:06:48.547Z,16.39
2023-07-18T00:09:14.937Z,16.36
2023-07-18T00:11:41.374Z,16.34
2023-07-18T00:14:07.917Z,16.38
2023-07-18T00:16:34.783Z,16.46
2023-07-18T00:19:01.462Z,16.50
2023-07-18T00:21:28.056Z,16.48
2023-07-18T00:23:54.543Z,16.43
2023-07-18T00:26:21.128Z,16.43
2023-07-18T00:28:47.668Z,16.41
2023-07-18T00:31:15.490Z,16.39
2023-07-18T00:33:42.030Z,16.34
2023-07-18T00:36:08.451Z,16.32
2023-07-18T00:38:34.843Z,16.29
2023-07-18T00:41:02.094Z,16.24
2023-07-18T00:43:31.626Z,16.18
2023-07-18T00:45:58.142Z,16.05
2023-07-18T00:48:27.554Z,15.94
2023-07-18T00:50:54.110Z,15.92
2023-07-18T00:53:22.857Z,15.91
2023-07-18T00:55:50.094Z,15.98
2023-07-18T00:58:17.987Z,16.01
2023-07-18T01:00:44.497Z,16.06
2023-07-18T01:03:11.194Z,16.07
2023-07-18T01:05:37.788Z,16.11
2023-07-18T01:08:04.246Z,16.15
2023-07-18T01:10:31.997Z,16.16
2023-07-18T01:13:00.149Z,16.14
2023-07-18T01:15:30.540Z,16.12
2023-07-18T01:17:57.074Z,16.13
2023-07-18T01:20:24.569Z,16.12
2023-07-18T01:22:52.867Z,16.14
2023-07-18T01:25:19.417Z,16.16
2023-07-18T01:27:50.131Z,16.22
2023-07-18T01:30:17.746Z,16.23
2023-07-18T01:32:44.180Z,16.23
2023-07-18T01:35:10.662Z,16.20
2023-07-18T01:37:38.159Z,16.22
2023-07-18T01:40:06.644Z,16.22
2023-07-18T01:42:33.082Z,16.18
2023-07-18T01:44:59.798Z,16.14
2023-07-18T01:47:26.465Z,16.14
2023-07-18T01:49:52.873Z,16.12
2023-07-18T01:52:19.310Z,16.11
2023-07-18T01:54:45.830Z,16.11
2023-07-18T01:57:12.368Z,16.08
2023-07-18T01:59:39.006Z,16.08
2023-07-18T02:02:05.469Z,16.11
2023-07-18T02:04:32.077Z,16.15
2023-07-18T02:06:58.519Z,16.13
2023-07-18T02:09:24.976Z,16.06
2023-07-18T02:11:51.536Z,16.04
2023-07-18T02:14:17.944Z,16.04
2023-07-18T02:16:44.435Z,16.08
2023-07-18T02:19:10.902Z,16.15
2023-07-18T02:21:37.409Z,16.31
2023-07-18T02:24:03.963Z,16.50
2023-07-18T02:26:30.482Z,16.67
2023-07-18T02:28:56.879Z,16.79
2023-07-18T02:31:24.988Z,16.85
2023-07-18T02:33:51.618Z,16.87
2023-07-18T02:36:18.140Z,16.85
2023-07-18T02:38:44.577Z,16.80
2023-07-18T02:41:11.005Z,16.77
2023-07-18T02:43:37.466Z,16.71
2023-07-18T02:46:04.005Z,16.65
2023-07-18T02:48:30.433Z,16.58
2023-07-18T02:50:56.852Z,16.52
2023-07-18T02:53:23.230Z,16.43
2023-07-18T02:55:49.618Z,16.36
2023-07-18T02:58:16.101Z,16.29
2023-07-18T03:00:42.675Z,16.23
2023-07-18T03:03:09.308Z,16.16
2023-07-18T03:05:35.854Z,16.11
2023-07-18T03:08:02.521Z,16.06
2023-07-18T03:10:28.957Z,16.00
2023-07-18T03:12:55.465Z,15.95
2023-07-18T03:15:21.898Z,15.91
2023-07-18T03:17:48.425Z,15.88
2023-07-18T03:20:14.979Z,15.85
2023-07-18T03:22:41.458Z,15.81
2023-07-18T03:25:08.262Z,15.80
2023-07-18T03:27:34.736Z,15.79
2023-07-18T03:30:01.241Z,15.78
2023-07-18T03:32:29.672Z,15.77
2023-07-18T03:34:56.300Z,15.77
2023-07-18T03:37:25.782Z,15.78
2023-07-18T03:39:52.236Z,15.78
2023-07-18T03:42:18.714Z,15.78
2023-07-18T03:44:45.135Z,15.81
2023-07-18T03:47:20.776Z,15.87
2023-07-18T03:49:47.792Z,15.93
2023-07-18T03:52:14.267Z,15.99
2023-07-18T03:54:40.679Z,16.05
2023-07-18T03:57:07.177Z,16.08
2023-07-18T03:59:33.729Z,16.12
2023-07-18T04:02:00.167Z,16.17
2023-07-18T04:04:26.722Z,16.25
2023-07-18T04:06:53.513Z,16.32
2023-07-18T04:09:19.915Z,16.38
2023-07-18T04:11:46.441Z,16.46
2023-07-18T04:14:13.246Z,16.51
2023-07-18T04:16:39.790Z,16.57
2023-07-18T04:19:06.406Z,16.63
2023-07-18T04:21:33.597Z,16.71
2023-07-18T04:24:00.266Z,16.79
2023-07-18T04:26:26.811Z,16.86
2023-07-18T04:28:53.276Z,16.93
2023-07-18T04:31:19.918Z,17.01
2023-07-18T04:33:46.810Z,17.10
2023-07-18T04:36:13.226Z,17.14
2023-07-18T04:38:39.915Z,17.17
2023-07-18T04:41:06.419Z,17.22
2023-07-18T04:43:33.032Z,17.31
2023-07-18T04:45:59.458Z,17.34
2023-07-18T04:48:26.387Z,17.38
2023-07-18T04:50:59.974Z,17.46
2023-07-18T04:53:27.099Z,17.52
2023-07-18T04:55:53.891Z,17.60
2023-07-18T04:58:20.478Z,17.68
2023-07-18T05:00:47.160Z,17.77
2023-07-18T05:03:13.936Z,17.88
2023-07-18T05:05:40.491Z,17.97
2023-07-18T05:08:07.054Z,18.04
2023-07-18T05:10:33.476Z,18.12
2023-07-18T05:13:00.220Z,18.20
2023-07-18T05:15:26.755Z,18.25
2023-07-18T05:17:53.158Z,18.29
2023-07-18T05:20:19.674Z,18.36
2023-07-18T05:22:46.525Z,18.40
2023-07-18T05:25:14.214Z,18.42
2023-07-18T05:27:41.490Z,18.49
2023-07-18T05:30:15.204Z,18.53
2023-07-18T05:32:42.411Z,18.55
2023-07-18T05:35:09.044Z,18.59
2023-07-18T05:37:35.706Z,18.64
2023-07-18T05:40:02.384Z,18.67
2023-07-18T05:42:28.861Z,18.68
2023-07-18T05:44:55.309Z,18.75
2023-07-18T05:47:21.885Z,18.82
2023-07-18T05:49:48.319Z,18.86
2023-07-18T05:52:15.010Z,18.86
2023-07-18T05:54:41.597Z,18.89
2023-07-18T05:57:09.128Z,18.90
2023-07-18T05:59:35.637Z,18.87
2023-07-18T06:02:02.281Z,18.91
2023-07-18T06:04:28.784Z,18.96
2023-07-18T06:06:55.261Z,19.00
2023-07-18T06:09:21.810Z,19.02
2023-07-18T06:11:48.384Z,19.03
2023-07-18T06:14:15.037Z,19.08
2023-07-18T06:16:42.698Z,19.12
2023-07-18T06:19:09.344Z,19.10
2023-07-18T06:21:35.823Z,19.14
2023-07-18T06:24:16.784Z,19.16
2023-07-18T06:26:45.628Z,19.17
2023-07-18T06:29:13.220Z,19.16
2023-07-18T06:31:39.622Z,19.23
2023-07-18T06:34:06.071Z,19.26
2023-07-18T06:36:32.687Z,19.29
2023-07-18T06:38:59.278Z,19.34
2023-07-18T06:41:25.769Z,19.39
2023-07-18T06:43:52.258Z,19.42
2023-07-18T06:46:18.764Z,19.43
2023-07-18T06:48:45.239Z,19.50
2023-07-18T06:51:11.728Z,19.54
2023-07-18T06:53:47.121Z,19.58
2023-07-18T06:56:13.607Z,19.65
2023-07-18T06:58:40.152Z,19.68
2023-07-18T07:01:06.641Z,19.65
2023-07-18T07:03:33.279Z,19.66
2023-07-18T07:05:59.815Z,19.74
2023-07-18T07:08:26.301Z,19.79
2023-07-18T07:11:03.351Z,19.82
2023-07-18T07:13:29.924Z,19.83
2023-07-18T07:15:56.516Z,19.89
2023-07-18T07:18:23.552Z,19.97
2023-07-18T07:20:51.290Z,20.03
2023-07-18T07:23:17.887Z,20.03
2023-07-18T07:25:44.513Z,20.05
2023-07-18T07:28:11.094Z,20.08
2023-07-18T07:30:37.577Z,20.12
2023-07-18T07:33:04.646Z,20.19
2023-07-18T07:35:31.089Z,20.22
2023-07-18T07:37:57.595Z,20.25
2023-07-18T07:40:24.262Z,20.35
2023-07-18T07:42:50.936Z,20.39
2023-07-18T07:45:17.580Z,20.44
2023-07-18T07:47:44.185Z,20.43
2023-07-18T07:50:10.732Z,20.47
2023-07-18T07:52:37.184Z,20.53
2023-07-18T07:55:03.854Z,20.55
2023-07-18T07:57:30.523Z,20.60
2023-07-18T07:59:56.976Z,20.68
2023-07-18T08:02:23.734Z,20.72
2023-07-18T08:04:50.308Z,20.80
2023-07-18T08:07:16.881Z,20.92
2023-07-18T08:09:43.562Z,21.00
2023-07-18T08:12:10.936Z,21.04
2023-07-18T08:14:37.385Z,21.01
2023-07-18T08:17:04.297Z,21.06
2023-07-18T08:19:30.754Z,21.08
2023-07-18T08:21:57.215Z,21.15
2023-07-18T08:24:23.619Z,21.20
2023-07-18T08:26:50.080Z,21.32
2023-07-18T08:29:16.942Z,21.34
2023-07-18T08:31:43.787Z,21.39
2023-07-18T08:34:10.369Z,21.47
2023-07-18T08:36:36.783Z,21.50
2023-07-18T08:39:06.847Z,21.54
2023-07-18T08:41:38.029Z,21.54
2023-07-18T08:44:04.683Z,21.55
2023-07-18T08:46:31.269Z,21.58
2023-07-18T08:48:58.301Z,21.65
2023-07-18T08:51:24.910Z,21.75
2023-07-18T08:53:51.344Z,21.74
2023-07-18T08:56:17.855Z,21.77
2023-07-18T08:58:44.330Z,21.78
2023-07-18T09:01:10.760Z,21.81
2023-07-18T09:03:37.193Z,21.87
2023-07-18T09:06:03.927Z,22.02
2023-07-18T09:08:42.803Z,22.12
2023-07-18T09:11:09.265Z,22.16
2023-07-18T09:13:42.186Z,22.21
2023-07-18T09:16:18.736Z,22.26
2023-07-18T09:18:50.252Z,22.30
2023-07-18T09:21:17.692Z,22.26
2023-07-18T09:23:45.311Z,22.26
2023-07-18T09:26:13.452Z,22.40
2023-07-18T09:28:39.967Z,22.54
2023-07-18T09:31:19.548Z,22.69
2023-07-18T09:33:47.198Z,22.86
2023-07-18T09:36:20.726Z,23.12
2023-07-18T09:38:47.556Z,23.44
2023-07-18T09:41:15.992Z,23.65
2023-07-18T09:43:42.783Z,23.66
2023-07-18T09:46:13.259Z,23.55
2023-07-18T09:51:11.272Z,23.69
2023-07-18T09:53:39.473Z,23.77
2023-07-18T09:56:07.845Z,23.92
2023-07-18T09:58:37.371Z,23.97
2023-07-18T10:01:05.178Z,23.96
2023-07-18T10:03:32.010Z,24.01
2023-07-18T10:05:58.620Z,24.12
2023-07-18T10:11:27.153Z,24.58
2023-07-18T10:14:23.232Z,24.88
2023-07-18T10:16:55.905Z,25.25
2023-07-18T10:19:23.154Z,25.57
2023-07-18T10:21:51.745Z,25.67
2023-07-18T10:24:21.382Z,25.86
2023-07-18T10:27:20.220Z,26.07
2023-07-18T10:30:03.261Z,26.65
2023-07-18T10:32:33.690Z,27.17
2023-07-18T10:35:00.841Z,27.50
2023-07-18T10:37:29.907Z,27.63
2023-07-18T10:39:57.196Z,27.90
2023-07-18T10:42:25.469Z,28.26
2023-07-18T10:44:55.040Z,28.43
2023-07-18T10:47:21.986Z,28.48
2023-07-18T10:49:48.589Z,28.64
2023-07-18T10:52:15.729Z,28.86
2023-07-18T10:54:52.328Z,29.04
2023-07-18T10:57:25.326Z,29.47
2023-07-18T10:59:52.524Z,29.85
2023-07-18T11:02:19.528Z,30.21
2023-07-18T11:04:46.765Z,30.72
2023-07-18T11:07:13.283Z,31.19
2023-07-18T11:09:40.508Z,31.05
2023-07-18T11:12:07.858Z,31.47
2023-07-18T11:14:40.661Z,32.06
2023-07-18T11:17:11.437Z,32.61
2023-07-18T11:19:38.127Z,32.99
2023-07-18T11:22:06.143Z,33.35
2023-07-18T11:24:33.591Z,32.75
2023-07-18T11:27:15.412Z,31.73
2023-07-18T11:30:02.025Z,31.94
2023-07-18T11:32:42.045Z,32.49
2023-07-18T11:35:12.691Z,33.29
2023-07-18T11:37:42.560Z,33.94
2023-07-18T11:40:10.366Z,34.39
2023-07-18T11:42:47.145Z,34.67
2023-07-18T11:45:15.561Z,35.24
2023-07-18T11:47:42.758Z,35.75
2023-07-18T11:50:09.983Z,35.89
2023-07-18T11:52:36.424Z,36.14
2023-07-18T11:55:02.957Z,36.28
2023-07-18T11:57:29.467Z,35.38
2023-07-18T11:59:55.972Z,34.61
2023-07-18T12:02:24.069Z,35.01
2023-07-18T12:04:52.531Z,35.30
2023-07-18T12:07:18.985Z,35.61
2023-07-18T12:09:45.506Z,36.29
2023-07-18T12:12:12.049Z,36.96
2023-07-18T12:14:38.739Z,37.37
2023-07-18T12:17:05.566Z,36.33
2023-07-18T12:19:32.309Z,34.38
2023-07-18T12:21:58.864Z,33.54
2023-07-18T12:24:25.321Z,33.34
2023-07-18T12:26:51.853Z,33.58
2023-07-18T12:29:18.356Z,34.78
2023-07-18T12:31:45.611Z,33.90
2023-07-18T12:34:12.390Z,33.48
2023-07-18T12:36:38.836Z,34.19
2023-07-18T12:39:05.421Z,35.30
2023-07-18T12:41:32.143Z,36.43
2023-07-18T12:43:58.654Z,37.37
2023-07-18T12:46:25.125Z,37.73
2023-07-18T12:51:29.646Z,37.17
2023-07-18T12:53:56.108Z,37.79
2023-07-18T12:56:22.700Z,35.93
2023-07-18T12:58:49.204Z,35.22
2023-07-18T13:01:15.739Z,36.65
2023-07-18T13:03:42.288Z,37.67
2023-07-18T13:06:09.088Z,38.39
2023-07-18T13:08:35.611Z,38.97
2023-07-18T13:11:02.231Z,39.53
2023-07-18T13:13:28.699Z,40.12
2023-07-18T13:15:55.267Z,40.47
2023-07-18T13:18:21.719Z,40.91
2023-07-18T13:20:48.633Z,41.34
2023-07-18T13:23:15.218Z,41.98
2023-07-18T13:25:41.693Z,42.44
2023-07-18T13:28:08.584Z,42.54
2023-07-18T13:30:36.556Z,42.32
2023-07-18T13:33:03.068Z,42.20
2023-07-18T13:35:29.641Z,42.46
2023-07-18T13:37:56.183Z,42.57
2023-07-18T13:40:23.331Z,40.38
2023-07-18T13:42:49.860Z,38.60
2023-07-18T13:45:16.365Z,39.29
2023-07-18T13:47:44.660Z,40.29
2023-07-18T13:52:40.695Z,41.64
2023-07-18T13:55:07.457Z,41.98
2023-07-18T13:57:33.976Z,42.46
2023-07-18T14:00:00.409Z,42.96
2023-07-18T14:02:26.990Z,43.25
2023-07-18T14:04:53.598Z,43.44
2023-07-18T14:07:20.046Z,43.69
2023-07-18T14:09:46.512Z,43.92
2023-07-18T14:12:14.108Z,44.16
2023-07-18T14:14:40.712Z,44.24
2023-07-18T14:17:07.253Z,44.50
2023-07-18T14:19:33.662Z,44.95
2023-07-18T14:22:00.301Z,45.16
2023-07-18T14:24:26.826Z,45.32
2023-07-18T14:26:53.548Z,45.22
2023-07-18T14:29:20.033Z,44.87
2023-07-18T14:31:46.545Z,44.57
2023-07-18T14:34:13.150Z,44.46
2023-07-18T14:36:39.648Z,44.54
2023-07-18T14:39:06.195Z,44.69
2023-07-18T14:41:32.637Z,44.81
2023-07-18T14:43:59.155Z,44.84
2023-07-18T14:46:25.830Z,44.93
2023-07-18T14:48:52.511Z,44.97
2023-07-18T14:51:19.119Z,45.02
2023-07-18T14:53:45.743Z,45.01
2023-07-18T14:56:12.300Z,45.05
2023-07-18T14:58:38.882Z,44.97
2023-07-18T15:01:05.525Z,44.59
2023-07-18T15:03:32.193Z,44.38
2023-07-18T15:05:58.633Z,44.25
2023-07-18T15:08:25.106Z,44.39
2023-07-18T15:10:51.628Z,44.57
2023-07-18T15:13:18.070Z,44.43
2023-07-18T15:15:46.047Z,44.34
2023-07-18T15:18:13.077Z,44.05
2023-07-18T15:20:39.596Z,43.67
2023-07-18T15:23:06.241Z,43.74
2023-07-18T15:25:32.965Z,44.17
2023-07-18T15:27:59.498Z,44.42
2023-07-18T15:30:26.298Z,44.89
2023-07-18T15:32:54.424Z,45.19
2023-07-18T15:35:21.029Z,45.20
2023-07-18T15:37:47.479Z,44.45
2023-07-18T15:40:13.973Z,43.50
2023-07-18T15:42:40.653Z,42.75
2023-07-18T15:45:07.491Z,42.02
2023-07-18T15:47:34.362Z,42.22
2023-07-18T15:50:00.854Z,42.45
2023-07-18T15:52:27.478Z,42.37
2023-07-18T15:54:54.110Z,42.32
2023-07-18T15:57:20.620Z,42.66
2023-07-18T15:59:47.232Z,42.79
2023-07-18T16:02:13.920Z,42.83
2023-07-18T16:04:40.568Z,43.08
2023-07-18T16:07:07.020Z,43.59
2023-07-18T16:09:46.714Z,43.79
2023-07-18T16:12:13.171Z,43.46
2023-07-18T16:14:39.654Z,42.88
2023-07-18T16:17:06.246Z,42.79
2023-07-18T16:19:32.663Z,42.64
2023-07-18T16:21:59.160Z,42.58
2023-07-18T16:24:25.668Z,42.56
2023-07-18T16:29:30.618Z,42.42
2023-07-18T16:31:56.954Z,41.65
2023-07-18T16:34:24.693Z,40.23
2023-07-18T16:36:56.578Z,38.39
2023-07-18T16:39:22.998Z,36.98
2023-07-18T16:41:49.512Z,35.79
2023-07-18T16:44:17.551Z,34.87
2023-07-18T16:46:45.796Z,34.35
2023-07-18T16:49:12.234Z,34.17
2023-07-18T16:51:38.936Z,33.67
2023-07-18T16:54:05.444Z,32.96
2023-07-18T16:56:33.187Z,32.28
2023-07-18T16:59:00.773Z,31.69
2023-07-18T17:01:27.491Z,31.17
2023-07-18T17:03:54.059Z,30.70
2023-07-18T17:06:21.053Z,30.32
2023-07-18T17:08:48.129Z,30.02
2023-07-18T17:11:32.853Z,29.71
2023-07-18T17:13:59.500Z,29.38
2023-07-18T17:16:25.959Z,29.41
2023-07-18T17:18:52.457Z,29.58
2023-07-18T17:21:18.991Z,29.54
2023-07-18T17:23:47.932Z,29.44
2023-07-18T17:26:16.813Z,29.35
2023-07-18T17:28:43.451Z,29.20
2023-07-18T17:31:10.196Z,28.91
2023-07-18T17:33:39.085Z,28.61
2023-07-18T17:36:06.532Z,28.32
2023-07-18T17:38:33.107Z,28.06
2023-07-18T17:40:59.752Z,27.83
2023-07-18T17:43:26.391Z,27.62
2023-07-18T17:45:52.861Z,27.40
2023-07-18T17:48:19.303Z,27.11
2023-07-18T17:50:46.130Z,26.84
2023-07-18T17:53:13.018Z,26.64
2023-07-18T17:55:39.651Z,26.47
2023-07-18T17:58:06.017Z,26.24
2023-07-18T18:00:32.489Z,25.95
2023-07-18T18:02:59.209Z,25.63
2023-07-18T18:05:39.004Z,25.31
2023-07-18T18:11:07.683Z,24.79
2023-07-18T18:13:34.691Z,24.67
2023-07-18T18:16:08.307Z,24.53
2023-07-18T18:18:36.026Z,24.35
2023-07-18T18:21:03.099Z,24.20
2023-07-18T18:23:38.700Z,24.05
2023-07-18T18:29:01.800Z,23.66
2023-07-18T18:31:28.196Z,23.48
2023-07-18T18:33:54.684Z,23.29
2023-07-18T18:36:28.072Z,23.10
2023-07-18T18:38:54.556Z,22.91
2023-07-18T18:41:21.239Z,22.73
2023-07-18T18:43:49.258Z,22.55
2023-07-18T18:46:16.122Z,22.41
2023-07-18T18:48:42.604Z,22.28
2023-07-18T18:51:11.864Z,22.16
2023-07-18T18:53:40.526Z,22.02
2023-07-18T18:56:07.242Z,21.87
2023-07-18T18:58:36.775Z,21.72
2023-07-18T19:01:03.255Z,21.59
2023-07-18T19:03:30.161Z,21.43
2023-07-18T19:09:05.781Z,21.01
2023-07-18T19:11:32.415Z,20.85
2023-07-18T19:14:01.125Z,20.72
2023-07-18T19:16:38.853Z,20.63
2023-07-18T19:19:06.427Z,20.56
2023-07-18T19:24:13.585Z,20.55
2023-07-18T19:26:40.534Z,20.54
2023-07-18T19:29:08.047Z,20.51
2023-07-18T19:31:34.626Z,20.42
2023-07-18T19:34:01.149Z,20.31
2023-07-18T19:36:27.690Z,20.24
2023-07-18T19:38:54.329Z,20.09
2023-07-18T19:41:20.879Z,19.93
2023-07-18T19:43:47.457Z,19.76
2023-07-18T19:46:14.137Z,19.62
2023-07-18T19:48:40.658Z,19.51
2023-07-18T19:51:07.090Z,19.44
2023-07-18T19:53:33.640Z,19.40
2023-07-18T19:56:01.570Z,19.36
2023-07-18T19:58:28.002Z,19.28
2023-07-18T20:00:54.994Z,19.18
2023-07-18T20:03:21.699Z,19.07
2023-07-18T20:05:49.338Z,18.99
2023-07-18T20:08:19.881Z,18.90
2023-07-18T20:10:46.335Z,18.85
2023-07-18T20:13:12.718Z,18.78
2023-07-18T20:15:39.174Z,18.69
2023-07-18T20:18:05.720Z,18.62
2023-07-18T20:20:32.201Z,18.62
2023-07-18T20:22:58.633Z,18.62
2023-07-18T20:25:25.182Z,18.59
2023-07-18T20:27:51.531Z,18.54
2023-07-18T20:30:17.907Z,18.49
2023-07-18T20:32:44.342Z,18.45
2023-07-18T20:35:10.734Z,18.41
2023-07-18T20:37:37.168Z,18.35
2023-07-18T20:40:03.736Z,18.31
2023-07-18T20:42:30.545Z,18.28
2023-07-18T20:44:56.915Z,18.22
2023-07-18T20:47:23.442Z,18.20
2023-07-18T20:49:49.939Z,18.20
2023-07-18T20:52:16.404Z,18.22
2023-07-18T20:54:42.798Z,18.23
2023-07-18T20:57:09.218Z,18.21
2023-07-18T20:59:35.645Z,18.15
2023-07-18T21:02:02.124Z,18.14
2023-07-18T21:04:28.466Z,18.11
2023-07-18T21:06:57.662Z,18.01
2023-07-18T21:09:24.272Z,17.91
2023-07-18T21:11:50.719Z,17.82
2023-07-18T21:14:18.581Z,17.81
2023-07-18T21:16:45.623Z,17.82
2023-07-18T21:19:12.209Z,17.79
2023-07-18T21:21:38.623Z,17.71
2023-07-18T21:24:05.261Z,17.64
2023-07-18T21:26:31.686Z,17.57
2023-07-18T21:29:04.865Z,17.54
2023-07-18T21:31:32.695Z,17.58
2023-07-18T21:33:59.180Z,17.62
2023-07-18T21:36:25.570Z,17.64
2023-07-18T21:38:52.071Z,17.61
2023-07-18T21:41:18.787Z,17.52
2023-07-18T21:43:45.371Z,17.40
2023-07-18T21:46:11.865Z,17.33
2023-07-18T21:48:38.443Z,17.28
2023-07-18T21:51:04.898Z,17.24
2023-07-18T21:53:31.267Z,17.19
2023-07-18T21:55:58.072Z,17.13
2023-07-18T21:58:24.511Z,17.05
2023-07-18T22:00:51.040Z,16.96
2023-07-18T22:03:17.552Z,16.90
2023-07-18T22:05:44.273Z,16.81
2023-07-18T22:08:10.685Z,16.74
2023-07-18T22:10:37.048Z,16.66
2023-07-18T22:13:03.411Z,16.60
2023-07-18T22:15:30.329Z,16.54
2023-07-18T22:17:56.780Z,16.49
2023-07-18T22:20:23.192Z,16.45
2023-07-18T22:22:49.760Z,16.44
2023-07-18T22:25:16.248Z,16.45
2023-07-18T22:27:42.593Z,16.41
2023-07-18T22:30:09.098Z,16.39
2023-07-18T22:32:35.671Z,16.44
2023-07-18T22:35:02.083Z,16.45
2023-07-18T22:37:28.637Z,16.38
2023-07-18T22:39:55.004Z,16.34
2023-07-18T22:42:22.474Z,16.30
2023-07-18T22:44:49.130Z,16.27
2023-07-18T22:47:15.711Z,16.24
2023-07-18T22:49:42.254Z,16.21
2023-07-18T22:52:09.494Z,16.18
2023-07-18T22:54:36.283Z,16.15
2023-07-18T22:57:02.671Z,16.11
2023-07-18T22:59:29.425Z,16.13
2023-07-18T23:01:55.774Z,16.11
2023-07-18T23:04:22.276Z,16.11
2023-07-18T23:06:48.901Z,16.11
2023-07-18T23:09:15.547Z,16.08
2023-07-18T23:11:42.563Z,16.02
2023-07-18T23:14:09.078Z,15.98
2023-07-18T23:16:35.489Z,15.94
2023-07-18T23:19:01.921Z,15.88
2023-07-18T23:21:28.430Z,15.86
2023-07-18T23:23:54.821Z,15.83
2023-07-18T23:26:21.322Z,15.79
2023-07-18T23:28:47.682Z,15.74
2023-07-18T23:31:14.161Z,15.72
2023-07-18T23:33:40.714Z,15.70
2023-07-18T23:36:07.494Z,15.71
2023-07-18T23:38:33.804Z,15.71
2023-07-18T23:41:00.251Z,15.68
2023-07-18T23:43:26.650Z,15.65
2023-07-18T23:45:53.106Z,15.62
2023-07-18T23:48:19.492Z,15.58
2023-07-18T23:50:46.030Z,15.56
2023-07-18T23:53:12.545Z,15.54
2023-07-18T23:55:41.897Z,15.53
2023-07-18T23:58:08.379Z,15.51
